Logo Frankfurt-Egelsbach Airport
Hessische Flugplatz GmbH Egelsbach
Telefon : +49 (0)6103-9418-0
E-Mail : fly@egelsbach-airport.com
   

 

 

 

 

 

 

Aktuelle Daten

Öffnungszeiten: 0800 LT - SS+30 (max 2100 LT)

PPR: 0700 LT - 0800 LT, SS+30 - 2100 LT Tel +49 6103 9418-0

Behördlich vorgeschriebenes Briefing für NVFR-Anflüge mit HPA
für die Saison 2014/2015

» Behördlich vorgeschriebenes Briefing für NVFR-Anflüge mit HPA für die Saison 2014/2015

 

Webcam

Webcam

Wetterdaten

Beobachtung von : 28-JAN-2015 - 06:28 UTC
Sonnenaufgang : 07:04 UTC
Sonnenuntergang : 16:12 UTC
Sicht : ausgefallen
Wolkenuntergrenze : nicht feststellbar
Wind : 190 / 5 kt
Wind extrem (10 min) : 150-240 / 3-9 kt
Temperatur : 2.0° Celsius
Taupunkt : 0.6° Celsius
QNH : 1018.6 hPa
Dichtehöhe : -1220 ft

Daten werden automatisch generiert. Verfügbarkeit und Richtigkeit ohne Gewähr.
Mit freundlicher Unterstützung des Deutschen Wetterdienstes

Metar

740
SADL31 EDFE 271620
METAR EDFE 271620Z 23005KT 9999 BKN021 04/01 Q1022=


Notam

Zur Zeit liegen keine NOTAM Meldungen vor.